createdAt,value
2023-03-24T06:30:19.463Z,7.10
2023-03-24T06:33:25.877Z,6.80
2023-03-24T06:39:45.722Z,5.97
2023-03-24T07:01:35.299Z,4.45
2023-03-24T07:07:12.581Z,4.45
2023-03-24T07:10:21.979Z,4.60
2023-03-24T07:13:24.566Z,4.15
2023-03-24T07:16:27.029Z,3.95
2023-03-24T07:24:05.978Z,3.33
2023-03-24T07:27:09.146Z,3.30
2023-03-24T07:30:12.134Z,3.83
2023-03-24T07:33:14.580Z,3.38
2023-03-24T07:36:17.204Z,3.65
2023-03-24T07:39:22.032Z,3.22
2023-03-24T07:42:25.176Z,3.00
2023-03-24T07:45:28.391Z,2.53
2023-03-24T07:48:30.981Z,2.40
2023-03-24T07:51:37.054Z,3.00
2023-03-24T07:54:42.684Z,2.42
2023-03-24T07:57:48.595Z,2.65
2023-03-24T08:00:51.436Z,2.60
2023-03-24T08:03:56.155Z,2.75
2023-03-24T08:06:58.735Z,3.17
2023-03-24T08:10:02.594Z,3.10
2023-03-24T08:13:05.175Z,3.38
2023-03-24T08:16:09.045Z,3.67
2023-03-24T08:19:11.505Z,3.45
2023-03-24T08:22:13.930Z,3.35
2023-03-24T08:25:19.409Z,3.83
2023-03-24T08:28:22.188Z,4.00
2023-03-24T08:31:24.693Z,3.58
2023-03-24T08:34:27.439Z,3.92
2023-03-24T08:37:29.849Z,3.67
2023-03-24T08:40:34.579Z,3.95
2023-03-24T08:43:38.096Z,3.83
2023-03-24T08:51:13.096Z,4.00
2023-03-24T08:54:15.678Z,4.45
2023-03-24T08:57:18.461Z,4.40
2023-03-24T09:00:22.733Z,3.75
2023-03-24T09:03:26.293Z,3.58
2023-03-24T09:06:32.859Z,3.42
2023-03-24T09:09:35.578Z,3.75
2023-03-24T09:12:40.822Z,3.85
2023-03-24T09:15:47.808Z,2.90
2023-03-24T09:18:53.074Z,4.15
2023-03-24T09:21:57.182Z,3.88
2023-03-24T09:24:59.856Z,3.75
2023-03-24T09:28:03.292Z,3.58
2023-03-24T09:31:07.308Z,3.40
2023-03-24T09:34:17.127Z,3.38
2023-03-24T09:37:21.498Z,3.33
2023-03-24T09:40:29.075Z,3.15
2023-03-24T09:43:41.564Z,3.25
2023-03-24T09:46:48.312Z,3.30
2023-03-24T09:49:53.363Z,3.03
2023-03-24T09:53:01.512Z,3.08
2023-03-24T09:56:12.249Z,2.92
2023-03-24T09:59:18.698Z,3.42
2023-03-24T10:02:23.053Z,3.08
2023-03-24T10:05:31.237Z,2.97
2023-03-24T10:08:37.492Z,3.33
2023-03-24T10:11:46.540Z,3.05
2023-03-24T10:14:59.191Z,3.00
2023-03-24T10:18:11.607Z,2.95
2023-03-24T10:21:20.335Z,3.00
2023-03-24T10:24:30.773Z,2.80
2023-03-24T10:27:38.551Z,2.72
2023-03-24T10:30:45.374Z,2.85
2023-03-24T10:33:48.777Z,2.55
2023-03-24T10:36:52.308Z,2.80
2023-03-24T10:39:56.112Z,2.72
2023-03-24T10:43:06.727Z,2.25
2023-03-24T10:46:13.639Z,2.45
2023-03-24T10:49:19.787Z,2.17
2023-03-24T10:52:24.504Z,1.90
2023-03-24T10:55:36.375Z,2.03
2023-03-24T11:01:43.579Z,1.55
2023-03-24T11:04:51.871Z,1.60
2023-03-24T11:07:54.534Z,1.52
2023-03-24T11:10:58.311Z,1.38
2023-03-24T11:14:03.997Z,1.10
2023-03-24T11:17:13.248Z,1.00
2023-03-24T11:20:21.101Z,1.20
2023-03-24T11:23:29.636Z,1.15
2023-03-24T11:26:36.013Z,1.38
2023-03-24T11:29:40.913Z,1.27
2023-03-24T11:32:48.125Z,1.52
2023-03-24T11:36:02.986Z,1.25
2023-03-24T11:39:12.684Z,0.98
2023-03-24T11:42:18.398Z,1.30
2023-03-24T11:45:28.856Z,0.80
2023-03-24T11:48:40.523Z,1.05
2023-03-24T11:51:48.740Z,0.90
2023-03-24T11:54:51.284Z,0.73
2023-03-24T11:58:02.057Z,1.25
2023-03-24T12:01:08.731Z,0.93
2023-03-24T12:04:31.344Z,0.70
2023-03-24T12:07:47.681Z,0.77
2023-03-24T12:11:06.244Z,0.82
2023-03-24T12:14:12.434Z,0.60
2023-03-24T12:17:17.369Z,0.73
2023-03-24T12:20:25.068Z,1.00
2023-03-24T12:23:37.786Z,1.00
2023-03-24T12:26:40.765Z,0.82
2023-03-24T12:29:59.550Z,0.65
2023-03-24T12:33:19.951Z,0.82
2023-03-24T12:36:39.039Z,0.85
2023-03-24T12:39:49.154Z,0.80
2023-03-24T12:43:03.168Z,0.68
2023-03-24T12:46:18.170Z,0.82
2023-03-24T12:49:36.586Z,0.90
2023-03-24T12:52:58.092Z,0.63
2023-03-24T12:56:16.200Z,0.73
2023-03-24T12:59:26.257Z,0.68
2023-03-24T13:02:35.798Z,0.63
2023-03-24T13:05:45.046Z,0.85
2023-03-24T13:08:58.557Z,0.95
2023-03-24T13:12:04.885Z,1.00
2023-03-24T13:15:19.473Z,1.02
2023-03-24T13:18:30.785Z,0.88
2023-03-24T13:21:35.241Z,0.85
2023-03-24T13:24:38.365Z,0.77
2023-03-24T13:27:45.164Z,0.88
2023-03-24T13:30:48.471Z,0.88
2023-03-24T13:33:54.064Z,0.95
2023-03-24T13:37:01.509Z,1.00
2023-03-24T13:40:11.246Z,0.82
2023-03-24T13:43:19.306Z,1.05
2023-03-24T13:46:21.878Z,0.80
2023-03-24T13:49:25.714Z,1.17
2023-03-24T13:52:33.570Z,0.80
2023-03-24T13:55:39.223Z,1.08
2023-03-24T13:58:51.798Z,1.13
2023-03-24T14:02:22.158Z,1.20
2023-03-24T14:05:55.623Z,1.30
2023-03-24T14:09:06.127Z,1.38
2023-03-24T14:12:17.793Z,0.95
2023-03-24T14:15:31.084Z,0.80
2023-03-24T14:18:43.808Z,1.20
2023-03-24T14:21:53.510Z,1.00
2023-03-24T14:25:00.816Z,0.88
2023-03-24T14:28:22.093Z,0.82
2023-03-24T14:31:28.968Z,1.30
2023-03-24T14:34:33.213Z,0.88
2023-03-24T14:37:37.307Z,1.00
2023-03-24T14:40:42.965Z,0.90
2023-03-24T14:43:59.005Z,0.85
2023-03-24T14:47:01.684Z,0.90
2023-03-24T14:50:14.130Z,0.90
2023-03-24T14:53:21.638Z,0.85
2023-03-24T14:56:24.415Z,1.25
2023-03-24T14:59:36.600Z,1.10
2023-03-24T15:02:43.334Z,0.98
2023-03-24T15:05:45.976Z,0.93
2023-03-24T15:08:52.640Z,0.90
2023-03-24T15:12:01.292Z,0.85
2023-03-24T15:15:04.150Z,0.82
2023-03-24T15:18:06.578Z,1.10
2023-03-24T15:21:17.021Z,0.80
2023-03-24T15:24:30.013Z,0.82
2023-03-24T15:27:34.366Z,1.02
2023-03-24T15:30:37.091Z,1.02
2023-03-24T15:33:40.656Z,1.40
2023-03-24T15:36:44.972Z,0.82
2023-03-24T15:39:53.859Z,1.00
2023-03-24T15:43:01.593Z,1.02
2023-03-24T15:46:12.279Z,0.90
2023-03-24T15:49:26.346Z,1.13
2023-03-24T15:52:31.965Z,1.48
2023-03-24T15:55:37.261Z,1.00
2023-03-24T15:58:52.345Z,1.27
2023-03-24T16:01:55.044Z,1.30
2023-03-24T16:05:10.785Z,1.38
2023-03-24T16:08:27.378Z,1.20
2023-03-24T16:11:31.215Z,1.25
2023-03-24T16:14:35.579Z,1.45
2023-03-24T16:17:38.020Z,1.40
2023-03-24T16:20:40.559Z,1.10
2023-03-24T16:23:43.566Z,1.77
2023-03-24T16:26:48.349Z,1.30
2023-03-24T16:29:51.061Z,1.17
2023-03-24T16:32:53.539Z,1.70
2023-03-24T16:35:56.050Z,1.38
2023-03-24T16:39:00.460Z,1.63
2023-03-24T16:42:04.275Z,1.83
2023-03-24T16:45:07.772Z,1.95
2023-03-24T16:48:11.088Z,1.85
2023-03-24T16:51:15.841Z,2.00
2023-03-24T16:54:18.258Z,2.15
2023-03-24T16:57:21.997Z,1.42
2023-03-24T17:00:25.550Z,2.10
2023-03-24T17:03:29.653Z,2.33
2023-03-24T17:06:33.496Z,2.83
2023-03-24T17:09:38.576Z,2.33
2023-03-24T17:12:42.832Z,1.90
2023-03-24T17:15:45.396Z,1.73
2023-03-24T17:18:47.831Z,1.80
2023-03-24T17:21:55.060Z,1.45
2023-03-24T17:24:58.282Z,1.70
2023-03-24T17:28:02.050Z,1.80
2023-03-24T17:31:04.747Z,1.80
2023-03-24T17:34:20.771Z,1.45
2023-03-24T17:37:26.960Z,1.40
2023-03-24T17:40:29.557Z,1.35
2023-03-24T17:43:33.538Z,1.50
2023-03-24T17:46:36.034Z,1.42
2023-03-24T17:49:38.481Z,2.03
2023-03-24T17:52:43.992Z,1.67
2023-03-24T17:55:46.404Z,1.83
2023-03-24T17:58:54.515Z,2.17
2023-03-24T18:01:57.242Z,1.60
2023-03-24T18:04:59.691Z,1.63
2023-03-24T18:08:02.102Z,2.03
2023-03-24T18:11:06.597Z,1.73
2023-03-24T18:14:10.356Z,1.63
2023-03-24T18:17:13.292Z,1.75
2023-03-24T18:20:16.108Z,2.03
2023-03-24T18:23:18.695Z,2.08
2023-03-24T18:26:23.362Z,1.90
2023-03-24T18:29:27.212Z,2.30
2023-03-24T18:32:32.998Z,2.10
2023-03-24T18:35:35.576Z,2.03
